sensor_id;sensor_type;location;lat;lon;timestamp;P1;durP1;ratioP1;P2;durP2;ratioP2
35909;SDS011;22004;49.120;-0.200;2022-12-05T00:04:03;44.30;;;22.83;;
35909;SDS011;22004;49.120;-0.200;2022-12-05T00:06:32;45.15;;;22.10;;
35909;SDS011;22004;49.120;-0.200;2022-12-05T00:08:59;43.58;;;22.55;;
35909;SDS011;22004;49.120;-0.200;2022-12-05T00:11:27;44.08;;;21.70;;
35909;SDS011;22004;49.120;-0.200;2022-12-05T00:13:55;44.95;;;22.40;;
35909;SDS011;22004;49.120;-0.200;2022-12-05T00:16:22;43.63;;;22.05;;
35909;SDS011;22004;49.120;-0.200;2022-12-05T00:18:49;44.58;;;22.45;;
35909;SDS011;22004;49.120;-0.200;2022-12-05T00:21:18;44.53;;;21.58;;
35909;SDS011;22004;49.120;-0.200;2022-12-05T00:23:45;48.00;;;22.67;;
35909;SDS011;22004;49.120;-0.200;2022-12-05T00:26:11;43.03;;;22.27;;
35909;SDS011;22004;49.120;-0.200;2022-12-05T00:28:36;44.95;;;21.67;;
35909;SDS011;22004;49.120;-0.200;2022-12-05T00:31:07;45.92;;;22.75;;
35909;SDS011;22004;49.120;-0.200;2022-12-05T00:33:37;44.10;;;22.75;;
35909;SDS011;22004;49.120;-0.200;2022-12-05T00:36:13;44.92;;;21.75;;
35909;SDS011;22004;49.120;-0.200;2022-12-05T00:38:41;42.85;;;21.65;;
35909;SDS011;22004;49.120;-0.200;2022-12-05T00:41:08;42.80;;;21.67;;
35909;SDS011;22004;49.120;-0.200;2022-12-05T00:43:35;43.20;;;21.27;;
35909;SDS011;22004;49.120;-0.200;2022-12-05T00:46:02;43.80;;;21.73;;
35909;SDS011;22004;49.120;-0.200;2022-12-05T00:48:29;45.38;;;22.30;;
35909;SDS011;22004;49.120;-0.200;2022-12-05T00:51:08;43.92;;;22.70;;
35909;SDS011;22004;49.120;-0.200;2022-12-05T00:53:35;43.17;;;22.42;;
35909;SDS011;22004;49.120;-0.200;2022-12-05T00:56:02;39.85;;;20.55;;
35909;SDS011;22004;49.120;-0.200;2022-12-05T00:58:29;43.78;;;22.15;;
35909;SDS011;22004;49.120;-0.200;2022-12-05T01:00:54;49.63;;;24.92;;
35909;SDS011;22004;49.120;-0.200;2022-12-05T01:03:19;41.17;;;20.98;;
35909;SDS011;22004;49.120;-0.200;2022-12-05T01:05:45;38.83;;;21.35;;
35909;SDS011;22004;49.120;-0.200;2022-12-05T01:08:10;41.03;;;21.33;;
35909;SDS011;22004;49.120;-0.200;2022-12-05T01:10:36;41.88;;;21.60;;
35909;SDS011;22004;49.120;-0.200;2022-12-05T01:13:01;42.50;;;21.20;;
35909;SDS011;22004;49.120;-0.200;2022-12-05T01:15:26;40.63;;;21.25;;
35909;SDS011;22004;49.120;-0.200;2022-12-05T01:17:52;42.60;;;21.65;;
35909;SDS011;22004;49.120;-0.200;2022-12-05T01:20:17;41.10;;;21.05;;
35909;SDS011;22004;49.120;-0.200;2022-12-05T01:22:42;44.53;;;21.48;;
35909;SDS011;22004;49.120;-0.200;2022-12-05T01:25:08;43.33;;;22.15;;
35909;SDS011;22004;49.120;-0.200;2022-12-05T01:27:33;38.67;;;20.40;;
35909;SDS011;22004;49.120;-0.200;2022-12-05T01:29:58;40.10;;;20.45;;
35909;SDS011;22004;49.120;-0.200;2022-12-05T01:32:24;45.42;;;21.67;;
35909;SDS011;22004;49.120;-0.200;2022-12-05T01:34:49;42.63;;;21.55;;
35909;SDS011;22004;49.120;-0.200;2022-12-05T01:37:15;38.65;;;20.45;;
35909;SDS011;22004;49.120;-0.200;2022-12-05T01:39:40;43.05;;;21.67;;
35909;SDS011;22004;49.120;-0.200;2022-12-05T01:42:05;39.40;;;20.08;;
35909;SDS011;22004;49.120;-0.200;2022-12-05T01:46:56;39.80;;;20.90;;
35909;SDS011;22004;49.120;-0.200;2022-12-05T01:49:24;42.15;;;20.92;;
35909;SDS011;22004;49.120;-0.200;2022-12-05T01:51:54;43.30;;;21.63;;
35909;SDS011;22004;49.120;-0.200;2022-12-05T01:54:22;40.58;;;20.88;;
35909;SDS011;22004;49.120;-0.200;2022-12-05T01:56:49;39.67;;;19.95;;
35909;SDS011;22004;49.120;-0.200;2022-12-05T01:59:20;37.33;;;20.23;;
35909;SDS011;22004;49.120;-0.200;2022-12-05T02:01:47;36.10;;;19.85;;
35909;SDS011;22004;49.120;-0.200;2022-12-05T02:04:13;40.67;;;20.83;;
35909;SDS011;22004;49.120;-0.200;2022-12-05T02:06:39;40.47;;;20.63;;
35909;SDS011;22004;49.120;-0.200;2022-12-05T02:09:04;40.58;;;20.40;;
35909;SDS011;22004;49.120;-0.200;2022-12-05T02:11:30;41.92;;;21.45;;
35909;SDS011;22004;49.120;-0.200;2022-12-05T02:30:49;37.42;;;19.25;;
35909;SDS011;22004;49.120;-0.200;2022-12-05T02:36:06;40.72;;;20.23;;
35909;SDS011;22004;49.120;-0.200;2022-12-05T02:38:41;38.00;;;19.63;;
35909;SDS011;22004;49.120;-0.200;2022-12-05T02:41:35;42.20;;;20.55;;
35909;SDS011;22004;49.120;-0.200;2022-12-05T02:47:00;37.42;;;19.50;;
35909;SDS011;22004;49.120;-0.200;2022-12-05T02:49:29;37.10;;;20.05;;
35909;SDS011;22004;49.120;-0.200;2022-12-05T02:51:58;37.08;;;19.75;;
35909;SDS011;22004;49.120;-0.200;2022-12-05T02:54:28;38.10;;;18.80;;
35909;SDS011;22004;49.120;-0.200;2022-12-05T02:56:57;37.75;;;19.92;;
35909;SDS011;22004;49.120;-0.200;2022-12-05T02:59:24;36.65;;;19.60;;
35909;SDS011;22004;49.120;-0.200;2022-12-05T03:01:49;38.65;;;19.33;;
35909;SDS011;22004;49.120;-0.200;2022-12-05T03:04:15;38.55;;;20.58;;
35909;SDS011;22004;49.120;-0.200;2022-12-05T03:09:22;40.88;;;21.90;;
35909;SDS011;22004;49.120;-0.200;2022-12-05T03:12:01;38.50;;;20.75;;
35909;SDS011;22004;49.120;-0.200;2022-12-05T03:14:43;38.17;;;20.30;;
35909;SDS011;22004;49.120;-0.200;2022-12-05T03:17:14;39.67;;;20.35;;
35909;SDS011;22004;49.120;-0.200;2022-12-05T03:22:29;37.15;;;19.35;;
35909;SDS011;22004;49.120;-0.200;2022-12-05T03:24:58;37.15;;;20.38;;
35909;SDS011;22004;49.120;-0.200;2022-12-05T03:27:28;43.70;;;21.27;;
35909;SDS011;22004;49.120;-0.200;2022-12-05T03:30:05;37.53;;;20.13;;
35909;SDS011;22004;49.120;-0.200;2022-12-05T03:32:39;38.47;;;19.73;;
35909;SDS011;22004;49.120;-0.200;2022-12-05T03:35:23;36.17;;;20.30;;
35909;SDS011;22004;49.120;-0.200;2022-12-05T03:37:55;39.53;;;21.25;;
35909;SDS011;22004;49.120;-0.200;2022-12-05T03:40:43;39.22;;;20.92;;
35909;SDS011;22004;49.120;-0.200;2022-12-05T03:43:10;38.83;;;20.90;;
35909;SDS011;22004;49.120;-0.200;2022-12-05T03:45:43;41.85;;;21.60;;
35909;SDS011;22004;49.120;-0.200;2022-12-05T03:48:17;37.55;;;20.05;;
35909;SDS011;22004;49.120;-0.200;2022-12-05T03:50:44;37.75;;;19.55;;
35909;SDS011;22004;49.120;-0.200;2022-12-05T03:53:14;37.30;;;19.63;;
35909;SDS011;22004;49.120;-0.200;2022-12-05T03:55:48;40.03;;;20.75;;
35909;SDS011;22004;49.120;-0.200;2022-12-05T04:01:16;39.72;;;21.02;;
35909;SDS011;22004;49.120;-0.200;2022-12-05T04:03:47;36.58;;;19.42;;
35909;SDS011;22004;49.120;-0.200;2022-12-05T04:06:24;40.00;;;20.73;;
35909;SDS011;22004;49.120;-0.200;2022-12-05T04:08:55;39.13;;;20.90;;
35909;SDS011;22004;49.120;-0.200;2022-12-05T04:11:25;42.50;;;21.80;;
35909;SDS011;22004;49.120;-0.200;2022-12-05T04:13:58;42.67;;;21.45;;
35909;SDS011;22004;49.120;-0.200;2022-12-05T04:16:32;38.08;;;21.23;;
35909;SDS011;22004;49.120;-0.200;2022-12-05T04:20:05;36.17;;;19.60;;
35909;SDS011;22004;49.120;-0.200;2022-12-05T04:22:35;37.17;;;20.25;;
35909;SDS011;22004;49.120;-0.200;2022-12-05T04:25:03;42.03;;;21.33;;
35909;SDS011;22004;49.120;-0.200;2022-12-05T04:31:04;39.40;;;20.90;;
35909;SDS011;22004;49.120;-0.200;2022-12-05T04:33:53;38.47;;;20.17;;
35909;SDS011;22004;49.120;-0.200;2022-12-05T04:38:57;39.40;;;21.10;;
35909;SDS011;22004;49.120;-0.200;2022-12-05T04:41:29;40.75;;;20.15;;
35909;SDS011;22004;49.120;-0.200;2022-12-05T04:44:00;36.42;;;19.40;;
35909;SDS011;22004;49.120;-0.200;2022-12-05T04:46:31;40.83;;;21.50;;
35909;SDS011;22004;49.120;-0.200;2022-12-05T04:48:59;39.08;;;21.08;;
35909;SDS011;22004;49.120;-0.200;2022-12-05T04:51:27;35.88;;;19.60;;
35909;SDS011;22004;49.120;-0.200;2022-12-05T04:53:59;37.67;;;20.02;;
35909;SDS011;22004;49.120;-0.200;2022-12-05T04:56:33;38.90;;;20.73;;
35909;SDS011;22004;49.120;-0.200;2022-12-05T04:59:01;40.25;;;21.52;;
35909;SDS011;22004;49.120;-0.200;2022-12-05T05:01:34;39.15;;;21.05;;
35909;SDS011;22004;49.120;-0.200;2022-12-05T05:06:49;38.65;;;20.50;;
35909;SDS011;22004;49.120;-0.200;2022-12-05T05:09:15;36.08;;;19.38;;
35909;SDS011;22004;49.120;-0.200;2022-12-05T05:11:40;40.60;;;20.77;;
35909;SDS011;22004;49.120;-0.200;2022-12-05T05:14:06;41.20;;;21.40;;
35909;SDS011;22004;49.120;-0.200;2022-12-05T05:16:37;37.20;;;20.00;;
35909;SDS011;22004;49.120;-0.200;2022-12-05T05:19:04;39.90;;;20.60;;
35909;SDS011;22004;49.120;-0.200;2022-12-05T05:21:32;39.22;;;19.95;;
35909;SDS011;22004;49.120;-0.200;2022-12-05T05:24:05;38.40;;;19.45;;
35909;SDS011;22004;49.120;-0.200;2022-12-05T05:26:35;36.85;;;19.50;;
35909;SDS011;22004;49.120;-0.200;2022-12-05T05:29:03;42.55;;;21.27;;
35909;SDS011;22004;49.120;-0.200;2022-12-05T05:31:28;38.45;;;19.55;;
35909;SDS011;22004;49.120;-0.200;2022-12-05T05:33:55;38.72;;;21.05;;
35909;SDS011;22004;49.120;-0.200;2022-12-05T05:36:22;38.25;;;20.52;;
35909;SDS011;22004;49.120;-0.200;2022-12-05T05:38:50;41.03;;;20.75;;
35909;SDS011;22004;49.120;-0.200;2022-12-05T05:41:35;36.40;;;20.08;;
35909;SDS011;22004;49.120;-0.200;2022-12-05T05:44:01;39.88;;;20.02;;
35909;SDS011;22004;49.120;-0.200;2022-12-05T05:46:28;40.08;;;20.48;;
35909;SDS011;22004;49.120;-0.200;2022-12-05T05:48:55;41.13;;;20.88;;
35909;SDS011;22004;49.120;-0.200;2022-12-05T05:51:21;38.53;;;19.85;;
35909;SDS011;22004;49.120;-0.200;2022-12-05T05:53:50;34.05;;;19.60;;
35909;SDS011;22004;49.120;-0.200;2022-12-05T05:56:17;36.80;;;19.30;;
35909;SDS011;22004;49.120;-0.200;2022-12-05T05:58:44;39.80;;;21.23;;
35909;SDS011;22004;49.120;-0.200;2022-12-05T06:01:10;38.38;;;20.13;;
35909;SDS011;22004;49.120;-0.200;2022-12-05T06:03:37;38.80;;;20.13;;
35909;SDS011;22004;49.120;-0.200;2022-12-05T06:06:04;39.10;;;20.08;;
35909;SDS011;22004;49.120;-0.200;2022-12-05T06:08:33;38.97;;;19.92;;
35909;SDS011;22004;49.120;-0.200;2022-12-05T06:11:03;37.60;;;20.20;;
35909;SDS011;22004;49.120;-0.200;2022-12-05T06:13:39;35.10;;;19.55;;
35909;SDS011;22004;49.120;-0.200;2022-12-05T06:16:05;36.20;;;19.50;;
35909;SDS011;22004;49.120;-0.200;2022-12-05T06:18:32;37.15;;;18.98;;
35909;SDS011;22004;49.120;-0.200;2022-12-05T06:20:59;37.40;;;19.23;;
35909;SDS011;22004;49.120;-0.200;2022-12-05T06:23:25;37.40;;;18.98;;
35909;SDS011;22004;49.120;-0.200;2022-12-05T06:25:52;40.95;;;20.88;;
35909;SDS011;22004;49.120;-0.200;2022-12-05T06:28:19;37.10;;;19.30;;
35909;SDS011;22004;49.120;-0.200;2022-12-05T06:30:46;36.53;;;20.05;;
35909;SDS011;22004;49.120;-0.200;2022-12-05T06:33:11;36.95;;;20.05;;
35909;SDS011;22004;49.120;-0.200;2022-12-05T06:35:37;33.75;;;18.98;;
35909;SDS011;22004;49.120;-0.200;2022-12-05T06:38:03;36.08;;;19.35;;
35909;SDS011;22004;49.120;-0.200;2022-12-05T06:40:28;35.00;;;19.20;;
35909;SDS011;22004;49.120;-0.200;2022-12-05T06:42:54;38.70;;;19.83;;
35909;SDS011;22004;49.120;-0.200;2022-12-05T06:45:19;40.53;;;21.73;;
35909;SDS011;22004;49.120;-0.200;2022-12-05T06:47:45;38.92;;;20.23;;
35909;SDS011;22004;49.120;-0.200;2022-12-05T06:50:10;39.75;;;20.23;;
35909;SDS011;22004;49.120;-0.200;2022-12-05T06:52:36;38.70;;;20.52;;
35909;SDS011;22004;49.120;-0.200;2022-12-05T06:55:01;35.72;;;18.90;;
35909;SDS011;22004;49.120;-0.200;2022-12-05T06:57:27;40.50;;;20.73;;
35909;SDS011;22004;49.120;-0.200;2022-12-05T06:59:53;38.17;;;19.95;;
35909;SDS011;22004;49.120;-0.200;2022-12-05T07:02:38;35.53;;;19.27;;
35909;SDS011;22004;49.120;-0.200;2022-12-05T07:05:05;37.33;;;20.20;;
35909;SDS011;22004;49.120;-0.200;2022-12-05T07:07:31;42.67;;;20.25;;
35909;SDS011;22004;49.120;-0.200;2022-12-05T07:09:57;43.17;;;20.27;;
35909;SDS011;22004;49.120;-0.200;2022-12-05T07:12:22;39.58;;;20.50;;
35909;SDS011;22004;49.120;-0.200;2022-12-05T07:14:47;38.63;;;20.83;;
35909;SDS011;22004;49.120;-0.200;2022-12-05T07:17:13;38.33;;;19.10;;
35909;SDS011;22004;49.120;-0.200;2022-12-05T07:19:38;40.60;;;20.77;;
35909;SDS011;22004;49.120;-0.200;2022-12-05T07:22:04;45.03;;;20.38;;
35909;SDS011;22004;49.120;-0.200;2022-12-05T07:24:29;44.92;;;22.88;;
35909;SDS011;22004;49.120;-0.200;2022-12-05T07:26:54;36.97;;;19.88;;
35909;SDS011;22004;49.120;-0.200;2022-12-05T07:29:20;38.20;;;21.58;;
35909;SDS011;22004;49.120;-0.200;2022-12-05T07:31:45;39.78;;;20.92;;
35909;SDS011;22004;49.120;-0.200;2022-12-05T07:34:10;42.05;;;22.08;;
35909;SDS011;22004;49.120;-0.200;2022-12-05T07:36:36;39.63;;;21.52;;
35909;SDS011;22004;49.120;-0.200;2022-12-05T07:39:01;39.45;;;20.80;;
35909;SDS011;22004;49.120;-0.200;2022-12-05T07:41:28;41.95;;;20.55;;
35909;SDS011;22004;49.120;-0.200;2022-12-05T07:43:55;39.05;;;20.13;;
35909;SDS011;22004;49.120;-0.200;2022-12-05T07:46:22;39.83;;;20.45;;
35909;SDS011;22004;49.120;-0.200;2022-12-05T07:48:49;43.17;;;19.73;;
35909;SDS011;22004;49.120;-0.200;2022-12-05T07:51:15;50.05;;;20.48;;
35909;SDS011;22004;49.120;-0.200;2022-12-05T07:53:41;35.35;;;19.20;;
35909;SDS011;22004;49.120;-0.200;2022-12-05T07:56:08;39.85;;;19.63;;
35909;SDS011;22004;49.120;-0.200;2022-12-05T07:58:35;38.90;;;20.38;;
35909;SDS011;22004;49.120;-0.200;2022-12-05T08:01:21;40.83;;;20.65;;
35909;SDS011;22004;49.120;-0.200;2022-12-05T08:03:48;47.22;;;19.67;;
35909;SDS011;22004;49.120;-0.200;2022-12-05T08:06:16;46.33;;;21.60;;
35909;SDS011;22004;49.120;-0.200;2022-12-05T08:08:43;47.00;;;21.35;;
35909;SDS011;22004;49.120;-0.200;2022-12-05T08:11:10;38.92;;;19.98;;
35909;SDS011;22004;49.120;-0.200;2022-12-05T08:13:38;39.88;;;21.02;;
35909;SDS011;22004;49.120;-0.200;2022-12-05T08:16:06;46.40;;;19.90;;
35909;SDS011;22004;49.120;-0.200;2022-12-05T08:18:33;44.85;;;20.10;;
35909;SDS011;22004;49.120;-0.200;2022-12-05T08:21:05;40.50;;;19.85;;
35909;SDS011;22004;49.120;-0.200;2022-12-05T08:23:35;41.40;;;19.67;;
35909;SDS011;22004;49.120;-0.200;2022-12-05T08:26:02;38.40;;;20.00;;
35909;SDS011;22004;49.120;-0.200;2022-12-05T08:28:32;49.20;;;21.02;;
35909;SDS011;22004;49.120;-0.200;2022-12-05T08:31:04;43.40;;;20.77;;
35909;SDS011;22004;49.120;-0.200;2022-12-05T08:33:31;45.17;;;20.73;;
35909;SDS011;22004;49.120;-0.200;2022-12-05T08:35:58;41.28;;;20.52;;
35909;SDS011;22004;49.120;-0.200;2022-12-05T08:38:25;42.90;;;20.42;;
35909;SDS011;22004;49.120;-0.200;2022-12-05T08:40:50;42.38;;;20.83;;
35909;SDS011;22004;49.120;-0.200;2022-12-05T08:43:15;39.13;;;19.58;;
35909;SDS011;22004;49.120;-0.200;2022-12-05T08:45:46;37.60;;;19.30;;
35909;SDS011;22004;49.120;-0.200;2022-12-05T08:48:13;36.00;;;19.90;;
35909;SDS011;22004;49.120;-0.200;2022-12-05T08:50:39;40.30;;;21.10;;
35909;SDS011;22004;49.120;-0.200;2022-12-05T08:53:04;45.70;;;21.70;;
35909;SDS011;22004;49.120;-0.200;2022-12-05T08:55:29;44.05;;;21.05;;
35909;SDS011;22004;49.120;-0.200;2022-12-05T08:57:54;40.15;;;20.02;;
35909;SDS011;22004;49.120;-0.200;2022-12-05T09:00:20;46.63;;;21.88;;
35909;SDS011;22004;49.120;-0.200;2022-12-05T09:02:48;43.33;;;21.45;;
35909;SDS011;22004;49.120;-0.200;2022-12-05T09:05:15;42.00;;;20.83;;
35909;SDS011;22004;49.120;-0.200;2022-12-05T09:07:41;43.42;;;21.90;;
35909;SDS011;22004;49.120;-0.200;2022-12-05T09:10:06;45.40;;;21.67;;
35909;SDS011;22004;49.120;-0.200;2022-12-05T09:12:34;40.58;;;20.48;;
35909;SDS011;22004;49.120;-0.200;2022-12-05T09:15:00;44.17;;;21.73;;
35909;SDS011;22004;49.120;-0.200;2022-12-05T09:17:25;41.55;;;21.35;;
35909;SDS011;22004;49.120;-0.200;2022-12-05T09:19:51;42.40;;;20.55;;
35909;SDS011;22004;49.120;-0.200;2022-12-05T09:22:16;42.58;;;21.25;;
35909;SDS011;22004;49.120;-0.200;2022-12-05T09:24:42;47.20;;;23.20;;
35909;SDS011;22004;49.120;-0.200;2022-12-05T09:27:07;44.00;;;21.65;;
35909;SDS011;22004;49.120;-0.200;2022-12-05T09:29:33;44.83;;;22.67;;
35909;SDS011;22004;49.120;-0.200;2022-12-05T09:31:58;46.45;;;23.45;;
35909;SDS011;22004;49.120;-0.200;2022-12-05T09:34:24;41.22;;;22.08;;
35909;SDS011;22004;49.120;-0.200;2022-12-05T09:36:50;43.58;;;21.77;;
35909;SDS011;22004;49.120;-0.200;2022-12-05T09:39:16;44.97;;;21.98;;
35909;SDS011;22004;49.120;-0.200;2022-12-05T09:52:37;44.97;;;22.75;;
35909;SDS011;22004;49.120;-0.200;2022-12-05T09:55:12;45.35;;;22.63;;
35909;SDS011;22004;49.120;-0.200;2022-12-05T09:57:41;50.88;;;24.05;;
35909;SDS011;22004;49.120;-0.200;2022-12-05T10:00:10;49.47;;;23.83;;
35909;SDS011;22004;49.120;-0.200;2022-12-05T10:03:21;48.28;;;23.67;;
35909;SDS011;22004;49.120;-0.200;2022-12-05T10:05:46;48.13;;;23.92;;
35909;SDS011;22004;49.120;-0.200;2022-12-05T10:10:59;49.30;;;24.50;;
35909;SDS011;22004;49.120;-0.200;2022-12-05T10:16:30;49.22;;;24.33;;
35909;SDS011;22004;49.120;-0.200;2022-12-05T10:19:01;50.53;;;24.83;;
35909;SDS011;22004;49.120;-0.200;2022-12-05T10:21:37;46.88;;;24.48;;
35909;SDS011;22004;49.120;-0.200;2022-12-05T10:24:15;49.13;;;24.77;;
35909;SDS011;22004;49.120;-0.200;2022-12-05T10:26:51;49.25;;;24.80;;
35909;SDS011;22004;49.120;-0.200;2022-12-05T10:31:50;45.13;;;23.92;;
35909;SDS011;22004;49.120;-0.200;2022-12-05T10:34:37;45.35;;;23.42;;
35909;SDS011;22004;49.120;-0.200;2022-12-05T10:37:12;53.25;;;25.70;;
35909;SDS011;22004;49.120;-0.200;2022-12-05T10:39:40;48.70;;;25.85;;
35909;SDS011;22004;49.120;-0.200;2022-12-05T10:42:06;49.70;;;24.40;;
35909;SDS011;22004;49.120;-0.200;2022-12-05T10:44:37;50.03;;;25.25;;
35909;SDS011;22004;49.120;-0.200;2022-12-05T10:47:03;52.25;;;25.02;;
35909;SDS011;22004;49.120;-0.200;2022-12-05T10:49:30;45.88;;;23.58;;
35909;SDS011;22004;49.120;-0.200;2022-12-05T10:51:58;52.95;;;26.30;;
35909;SDS011;22004;49.120;-0.200;2022-12-05T10:54:25;50.88;;;26.25;;
35909;SDS011;22004;49.120;-0.200;2022-12-05T10:56:54;47.35;;;25.35;;
35909;SDS011;22004;49.120;-0.200;2022-12-05T10:59:23;48.65;;;24.77;;
35909;SDS011;22004;49.120;-0.200;2022-12-05T11:04:22;45.55;;;23.58;;
35909;SDS011;22004;49.120;-0.200;2022-12-05T11:07:00;57.08;;;28.52;;
35909;SDS011;22004;49.120;-0.200;2022-12-05T11:09:29;56.92;;;27.73;;
35909;SDS011;22004;49.120;-0.200;2022-12-05T11:12:15;51.45;;;26.73;;
35909;SDS011;22004;49.120;-0.200;2022-12-05T11:17:49;52.20;;;26.60;;
35909;SDS011;22004;49.120;-0.200;2022-12-05T11:22:41;53.77;;;26.47;;
35909;SDS011;22004;49.120;-0.200;2022-12-05T11:25:24;59.40;;;28.48;;
35909;SDS011;22004;49.120;-0.200;2022-12-05T11:27:54;53.22;;;26.40;;
35909;SDS011;22004;49.120;-0.200;2022-12-05T11:30:21;52.47;;;26.63;;
35909;SDS011;22004;49.120;-0.200;2022-12-05T11:32:48;55.30;;;25.95;;
35909;SDS011;22004;49.120;-0.200;2022-12-05T11:37:44;54.07;;;27.40;;
35909;SDS011;22004;49.120;-0.200;2022-12-05T11:43:24;50.42;;;25.83;;
35909;SDS011;22004;49.120;-0.200;2022-12-05T11:46:09;55.25;;;26.75;;
35909;SDS011;22004;49.120;-0.200;2022-12-05T11:57:13;52.53;;;26.60;;
35909;SDS011;22004;49.120;-0.200;2022-12-05T12:16:16;57.88;;;27.58;;
35909;SDS011;22004;49.120;-0.200;2022-12-05T12:30:40;52.35;;;25.58;;
35909;SDS011;22004;49.120;-0.200;2022-12-05T12:33:28;51.15;;;27.08;;
35909;SDS011;22004;49.120;-0.200;2022-12-05T12:35:56;51.38;;;26.67;;
35909;SDS011;22004;49.120;-0.200;2022-12-05T12:41:07;52.90;;;26.17;;
35909;SDS011;22004;49.120;-0.200;2022-12-05T12:47:00;51.95;;;27.05;;
35909;SDS011;22004;49.120;-0.200;2022-12-05T12:52:18;57.78;;;27.67;;
35909;SDS011;22004;49.120;-0.200;2022-12-05T13:02:59;53.63;;;27.27;;
35909;SDS011;22004;49.120;-0.200;2022-12-05T13:11:02;51.60;;;26.83;;
35909;SDS011;22004;49.120;-0.200;2022-12-05T13:13:33;54.20;;;28.23;;
35909;SDS011;22004;49.120;-0.200;2022-12-05T13:16:03;51.63;;;27.60;;
35909;SDS011;22004;49.120;-0.200;2022-12-05T13:18:31;55.95;;;27.15;;
35909;SDS011;22004;49.120;-0.200;2022-12-05T13:20:58;62.10;;;29.10;;
35909;SDS011;22004;49.120;-0.200;2022-12-05T13:23:28;51.40;;;25.55;;
35909;SDS011;22004;49.120;-0.200;2022-12-05T13:25:57;53.83;;;26.25;;
35909;SDS011;22004;49.120;-0.200;2022-12-05T13:28:38;58.90;;;27.95;;
35909;SDS011;22004;49.120;-0.200;2022-12-05T13:31:11;51.05;;;26.83;;
35909;SDS011;22004;49.120;-0.200;2022-12-05T13:33:41;55.08;;;28.02;;
35909;SDS011;22004;49.120;-0.200;2022-12-05T13:36:10;55.40;;;27.88;;
35909;SDS011;22004;49.120;-0.200;2022-12-05T13:39:01;57.47;;;27.67;;
35909;SDS011;22004;49.120;-0.200;2022-12-05T13:41:48;56.47;;;27.63;;
35909;SDS011;22004;49.120;-0.200;2022-12-05T13:47:05;55.72;;;27.42;;
35909;SDS011;22004;49.120;-0.200;2022-12-05T13:52:09;54.28;;;26.60;;
35909;SDS011;22004;49.120;-0.200;2022-12-05T13:54:40;51.13;;;25.88;;
35909;SDS011;22004;49.120;-0.200;2022-12-05T14:07:42;51.30;;;26.20;;
35909;SDS011;22004;49.120;-0.200;2022-12-05T14:10:14;49.67;;;25.67;;
35909;SDS011;22004;49.120;-0.200;2022-12-05T14:15:41;49.33;;;26.08;;
35909;SDS011;22004;49.120;-0.200;2022-12-05T14:18:17;55.22;;;26.73;;
35909;SDS011;22004;49.120;-0.200;2022-12-05T14:21:09;52.03;;;26.17;;
35909;SDS011;22004;49.120;-0.200;2022-12-05T14:26:37;52.60;;;25.55;;
35909;SDS011;22004;49.120;-0.200;2022-12-05T14:35:02;47.90;;;26.70;;
35909;SDS011;22004;49.120;-0.200;2022-12-05T14:37:37;51.38;;;25.17;;
35909;SDS011;22004;49.120;-0.200;2022-12-05T14:40:34;54.38;;;26.85;;
35909;SDS011;22004;49.120;-0.200;2022-12-05T14:55:51;50.55;;;26.15;;
35909;SDS011;22004;49.120;-0.200;2022-12-05T15:06:54;48.75;;;25.75;;
35909;SDS011;22004;49.120;-0.200;2022-12-05T15:12:11;43.03;;;22.77;;
35909;SDS011;22004;49.120;-0.200;2022-12-05T15:14:45;41.25;;;23.25;;
35909;SDS011;22004;49.120;-0.200;2022-12-05T15:17:18;39.47;;;22.05;;
35909;SDS011;22004;49.120;-0.200;2022-12-05T15:19:54;40.58;;;22.25;;
35909;SDS011;22004;49.120;-0.200;2022-12-05T15:22:27;46.85;;;22.27;;
35909;SDS011;22004;49.120;-0.200;2022-12-05T15:24:56;42.72;;;23.08;;
35909;SDS011;22004;49.120;-0.200;2022-12-05T15:27:22;41.50;;;22.42;;
35909;SDS011;22004;49.120;-0.200;2022-12-05T15:29:51;42.47;;;21.23;;
35909;SDS011;22004;49.120;-0.200;2022-12-05T15:32:20;43.00;;;21.88;;
35909;SDS011;22004;49.120;-0.200;2022-12-05T15:37:47;42.53;;;21.65;;
35909;SDS011;22004;49.120;-0.200;2022-12-05T15:40:18;38.40;;;20.33;;
35909;SDS011;22004;49.120;-0.200;2022-12-05T15:42:51;40.65;;;20.95;;
35909;SDS011;22004;49.120;-0.200;2022-12-05T15:45:28;38.75;;;21.25;;
35909;SDS011;22004;49.120;-0.200;2022-12-05T15:47:55;39.92;;;20.88;;
35909;SDS011;22004;49.120;-0.200;2022-12-05T15:50:47;40.17;;;20.73;;
35909;SDS011;22004;49.120;-0.200;2022-12-05T15:55:45;38.13;;;20.08;;
35909;SDS011;22004;49.120;-0.200;2022-12-05T15:58:26;42.08;;;20.73;;
35909;SDS011;22004;49.120;-0.200;2022-12-05T16:06:28;46.80;;;22.75;;
35909;SDS011;22004;49.120;-0.200;2022-12-05T16:08:58;43.30;;;23.90;;
35909;SDS011;22004;49.120;-0.200;2022-12-05T16:11:29;41.67;;;22.30;;
35909;SDS011;22004;49.120;-0.200;2022-12-05T16:13:57;36.90;;;21.17;;
35909;SDS011;22004;49.120;-0.200;2022-12-05T16:16:28;40.10;;;22.85;;
35909;SDS011;22004;49.120;-0.200;2022-12-05T16:18:58;40.28;;;22.77;;
35909;SDS011;22004;49.120;-0.200;2022-12-05T16:21:33;44.63;;;23.77;;
35909;SDS011;22004;49.120;-0.200;2022-12-05T16:24:04;37.90;;;20.88;;
35909;SDS011;22004;49.120;-0.200;2022-12-05T16:27:33;35.22;;;20.48;;
35909;SDS011;22004;49.120;-0.200;2022-12-05T16:29:40;36.10;;;20.67;;
35909;SDS011;22004;49.120;-0.200;2022-12-05T16:32:13;37.38;;;20.02;;
35909;SDS011;22004;49.120;-0.200;2022-12-05T16:34:46;37.72;;;19.80;;
35909;SDS011;22004;49.120;-0.200;2022-12-05T16:37:21;36.10;;;20.92;;
35909;SDS011;22004;49.120;-0.200;2022-12-05T16:39:50;38.63;;;22.27;;
35909;SDS011;22004;49.120;-0.200;2022-12-05T16:42:28;38.28;;;21.00;;
35909;SDS011;22004;49.120;-0.200;2022-12-05T16:44:54;37.58;;;19.58;;
35909;SDS011;22004;49.120;-0.200;2022-12-05T16:53:39;33.13;;;19.00;;
35909;SDS011;22004;49.120;-0.200;2022-12-05T16:55:47;33.95;;;19.20;;
35909;SDS011;22004;49.120;-0.200;2022-12-05T16:58:15;35.13;;;19.60;;
35909;SDS011;22004;49.120;-0.200;2022-12-05T17:00:44;34.63;;;19.40;;
35909;SDS011;22004;49.120;-0.200;2022-12-05T17:03:11;33.38;;;19.58;;
35909;SDS011;22004;49.120;-0.200;2022-12-05T17:05:37;32.88;;;20.00;;
35909;SDS011;22004;49.120;-0.200;2022-12-05T17:08:02;36.45;;;20.33;;
35909;SDS011;22004;49.120;-0.200;2022-12-05T17:10:28;36.95;;;20.00;;
35909;SDS011;22004;49.120;-0.200;2022-12-05T17:12:53;35.28;;;20.27;;
35909;SDS011;22004;49.120;-0.200;2022-12-05T17:15:19;33.53;;;18.48;;
35909;SDS011;22004;49.120;-0.200;2022-12-05T17:17:45;34.13;;;19.92;;
35909;SDS011;22004;49.120;-0.200;2022-12-05T17:20:10;34.03;;;19.38;;
35909;SDS011;22004;49.120;-0.200;2022-12-05T17:22:37;33.20;;;19.63;;
35909;SDS011;22004;49.120;-0.200;2022-12-05T17:25:50;34.78;;;19.00;;
35909;SDS011;22004;49.120;-0.200;2022-12-05T17:28:00;36.08;;;18.73;;
35909;SDS011;22004;49.120;-0.200;2022-12-05T17:30:26;33.38;;;19.48;;
35909;SDS011;22004;49.120;-0.200;2022-12-05T17:32:51;37.42;;;20.83;;
35909;SDS011;22004;49.120;-0.200;2022-12-05T17:35:17;35.20;;;19.77;;
35909;SDS011;22004;49.120;-0.200;2022-12-05T17:37:44;34.53;;;20.00;;
35909;SDS011;22004;49.120;-0.200;2022-12-05T17:40:10;35.50;;;19.27;;
35909;SDS011;22004;49.120;-0.200;2022-12-05T17:42:37;33.38;;;19.35;;
35909;SDS011;22004;49.120;-0.200;2022-12-05T17:45:03;31.02;;;18.15;;
35909;SDS011;22004;49.120;-0.200;2022-12-05T17:47:32;33.80;;;18.63;;
35909;SDS011;22004;49.120;-0.200;2022-12-05T17:49:58;35.63;;;18.55;;